sensor_id;sensor_type;location;lat;lon;timestamp;P1;durP1;ratioP1;P2;durP2;ratioP2
14903;SDS011;7543;53.148;8.234;2022-12-11T00:00:37;25.60;;;8.83;;
14903;SDS011;7543;53.148;8.234;2022-12-11T00:03:07;18.97;;;9.07;;
14903;SDS011;7543;53.148;8.234;2022-12-11T00:05:37;20.43;;;8.33;;
14903;SDS011;7543;53.148;8.234;2022-12-11T00:08:06;18.60;;;8.10;;
14903;SDS011;7543;53.148;8.234;2022-12-11T00:10:34;21.07;;;8.93;;
14903;SDS011;7543;53.148;8.234;2022-12-11T00:13:02;20.13;;;9.07;;
14903;SDS011;7543;53.148;8.234;2022-12-11T00:15:31;21.67;;;9.20;;
14903;SDS011;7543;53.148;8.234;2022-12-11T00:17:59;17.07;;;8.03;;
14903;SDS011;7543;53.148;8.234;2022-12-11T00:20:29;23.33;;;9.23;;
14903;SDS011;7543;53.148;8.234;2022-12-11T00:22:57;19.73;;;8.43;;
14903;SDS011;7543;53.148;8.234;2022-12-11T00:25:26;24.00;;;9.07;;
14903;SDS011;7543;53.148;8.234;2022-12-11T00:27:54;23.00;;;9.63;;
14903;SDS011;7543;53.148;8.234;2022-12-11T00:30:22;23.40;;;9.13;;
14903;SDS011;7543;53.148;8.234;2022-12-11T00:32:50;21.40;;;7.87;;
14903;SDS011;7543;53.148;8.234;2022-12-11T00:35:18;23.43;;;8.63;;
14903;SDS011;7543;53.148;8.234;2022-12-11T00:37:48;25.53;;;9.57;;
14903;SDS011;7543;53.148;8.234;2022-12-11T00:40:16;22.57;;;9.50;;
14903;SDS011;7543;53.148;8.234;2022-12-11T00:42:45;22.73;;;8.73;;
14903;SDS011;7543;53.148;8.234;2022-12-11T00:45:13;24.77;;;8.83;;
14903;SDS011;7543;53.148;8.234;2022-12-11T00:47:41;23.67;;;8.90;;
14903;SDS011;7543;53.148;8.234;2022-12-11T00:50:09;24.13;;;9.70;;
14903;SDS011;7543;53.148;8.234;2022-12-11T00:52:38;23.47;;;9.87;;
14903;SDS011;7543;53.148;8.234;2022-12-11T00:55:08;22.17;;;8.47;;
14903;SDS011;7543;53.148;8.234;2022-12-11T00:57:37;18.50;;;8.47;;
14903;SDS011;7543;53.148;8.234;2022-12-11T01:00:05;20.60;;;8.90;;
14903;SDS011;7543;53.148;8.234;2022-12-11T01:02:34;20.43;;;8.50;;
14903;SDS011;7543;53.148;8.234;2022-12-11T01:05:03;18.03;;;8.00;;
14903;SDS011;7543;53.148;8.234;2022-12-11T01:07:31;20.43;;;8.47;;
14903;SDS011;7543;53.148;8.234;2022-12-11T01:10:00;25.30;;;10.10;;
14903;SDS011;7543;53.148;8.234;2022-12-11T01:12:47;18.60;;;8.57;;
14903;SDS011;7543;53.148;8.234;2022-12-11T01:15:15;21.60;;;9.27;;
14903;SDS011;7543;53.148;8.234;2022-12-11T01:17:43;23.03;;;8.53;;
14903;SDS011;7543;53.148;8.234;2022-12-11T01:20:12;29.27;;;9.90;;
14903;SDS011;7543;53.148;8.234;2022-12-11T01:22:40;21.47;;;8.63;;
14903;SDS011;7543;53.148;8.234;2022-12-11T01:25:08;25.17;;;9.80;;
14903;SDS011;7543;53.148;8.234;2022-12-11T01:27:37;19.80;;;8.00;;
14903;SDS011;7543;53.148;8.234;2022-12-11T01:30:08;20.17;;;7.90;;
14903;SDS011;7543;53.148;8.234;2022-12-11T01:32:37;23.77;;;9.43;;
14903;SDS011;7543;53.148;8.234;2022-12-11T01:35:06;22.43;;;10.53;;
14903;SDS011;7543;53.148;8.234;2022-12-11T01:37:34;26.13;;;9.53;;
14903;SDS011;7543;53.148;8.234;2022-12-11T01:40:05;28.90;;;10.07;;
14903;SDS011;7543;53.148;8.234;2022-12-11T01:42:35;23.97;;;9.80;;
14903;SDS011;7543;53.148;8.234;2022-12-11T01:45:15;26.50;;;9.77;;
14903;SDS011;7543;53.148;8.234;2022-12-11T01:47:51;29.53;;;9.33;;
14903;SDS011;7543;53.148;8.234;2022-12-11T01:50:22;19.67;;;8.73;;
14903;SDS011;7543;53.148;8.234;2022-12-11T01:52:50;23.57;;;9.80;;
14903;SDS011;7543;53.148;8.234;2022-12-11T01:55:19;25.17;;;9.60;;
14903;SDS011;7543;53.148;8.234;2022-12-11T01:57:47;22.67;;;9.63;;
14903;SDS011;7543;53.148;8.234;2022-12-11T02:00:18;25.77;;;11.00;;
14903;SDS011;7543;53.148;8.234;2022-12-11T02:02:46;27.27;;;10.30;;
14903;SDS011;7543;53.148;8.234;2022-12-11T02:05:15;30.07;;;10.87;;
14903;SDS011;7543;53.148;8.234;2022-12-11T02:07:44;33.47;;;11.17;;
14903;SDS011;7543;53.148;8.234;2022-12-11T02:10:14;30.27;;;11.23;;
14903;SDS011;7543;53.148;8.234;2022-12-11T02:12:48;26.80;;;10.10;;
14903;SDS011;7543;53.148;8.234;2022-12-11T02:15:23;40.23;;;11.97;;
14903;SDS011;7543;53.148;8.234;2022-12-11T02:17:55;30.67;;;11.23;;
14903;SDS011;7543;53.148;8.234;2022-12-11T02:20:30;32.13;;;11.27;;
14903;SDS011;7543;53.148;8.234;2022-12-11T02:23:13;39.13;;;11.70;;
14903;SDS011;7543;53.148;8.234;2022-12-11T02:25:50;35.07;;;11.13;;
14903;SDS011;7543;53.148;8.234;2022-12-11T02:28:24;33.20;;;10.43;;
14903;SDS011;7543;53.148;8.234;2022-12-11T02:30:56;30.90;;;9.93;;
14903;SDS011;7543;53.148;8.234;2022-12-11T02:33:28;37.03;;;11.17;;
14903;SDS011;7543;53.148;8.234;2022-12-11T02:36:01;36.87;;;12.47;;
14903;SDS011;7543;53.148;8.234;2022-12-11T02:38:31;30.70;;;10.93;;
14903;SDS011;7543;53.148;8.234;2022-12-11T02:41:00;29.30;;;9.93;;
14903;SDS011;7543;53.148;8.234;2022-12-11T02:43:31;33.97;;;11.23;;
14903;SDS011;7543;53.148;8.234;2022-12-11T02:46:00;40.67;;;12.37;;
14903;SDS011;7543;53.148;8.234;2022-12-11T02:48:30;32.77;;;11.57;;
14903;SDS011;7543;53.148;8.234;2022-12-11T02:50:59;33.93;;;11.33;;
14903;SDS011;7543;53.148;8.234;2022-12-11T02:53:28;35.70;;;11.00;;
14903;SDS011;7543;53.148;8.234;2022-12-11T02:56:00;41.93;;;11.00;;
14903;SDS011;7543;53.148;8.234;2022-12-11T02:58:32;31.17;;;10.47;;
14903;SDS011;7543;53.148;8.234;2022-12-11T03:01:01;29.70;;;11.23;;
14903;SDS011;7543;53.148;8.234;2022-12-11T03:03:29;36.00;;;10.40;;
14903;SDS011;7543;53.148;8.234;2022-12-11T03:05:57;26.60;;;10.57;;
14903;SDS011;7543;53.148;8.234;2022-12-11T03:08:25;44.00;;;12.03;;
14903;SDS011;7543;53.148;8.234;2022-12-11T03:10:53;38.47;;;11.03;;
14903;SDS011;7543;53.148;8.234;2022-12-11T03:13:22;38.80;;;12.80;;
14903;SDS011;7543;53.148;8.234;2022-12-11T03:15:56;46.10;;;10.73;;
14903;SDS011;7543;53.148;8.234;2022-12-11T03:18:32;39.90;;;11.60;;
14903;SDS011;7543;53.148;8.234;2022-12-11T03:21:04;42.60;;;11.93;;
14903;SDS011;7543;53.148;8.234;2022-12-11T03:23:36;40.13;;;11.93;;
14903;SDS011;7543;53.148;8.234;2022-12-11T03:26:07;40.70;;;11.40;;
14903;SDS011;7543;53.148;8.234;2022-12-11T03:28:39;35.80;;;11.23;;
14903;SDS011;7543;53.148;8.234;2022-12-11T03:31:13;44.67;;;13.03;;
14903;SDS011;7543;53.148;8.234;2022-12-11T03:33:46;38.67;;;10.60;;
14903;SDS011;7543;53.148;8.234;2022-12-11T03:36:16;43.40;;;10.83;;
14903;SDS011;7543;53.148;8.234;2022-12-11T03:38:48;34.10;;;11.27;;
14903;SDS011;7543;53.148;8.234;2022-12-11T03:41:20;40.60;;;10.87;;
14903;SDS011;7543;53.148;8.234;2022-12-11T03:43:50;38.70;;;11.07;;
14903;SDS011;7543;53.148;8.234;2022-12-11T03:46:22;41.37;;;12.37;;
14903;SDS011;7543;53.148;8.234;2022-12-11T03:48:52;49.33;;;11.77;;
14903;SDS011;7543;53.148;8.234;2022-12-11T03:51:23;48.90;;;11.87;;
14903;SDS011;7543;53.148;8.234;2022-12-11T03:53:52;46.17;;;12.77;;
14903;SDS011;7543;53.148;8.234;2022-12-11T03:56:20;40.33;;;10.70;;
14903;SDS011;7543;53.148;8.234;2022-12-11T03:58:49;42.93;;;11.27;;
14903;SDS011;7543;53.148;8.234;2022-12-11T04:01:17;35.13;;;10.83;;
14903;SDS011;7543;53.148;8.234;2022-12-11T04:03:46;51.03;;;12.27;;
14903;SDS011;7543;53.148;8.234;2022-12-11T04:06:14;40.77;;;11.73;;
14903;SDS011;7543;53.148;8.234;2022-12-11T04:08:43;41.33;;;11.10;;
14903;SDS011;7543;53.148;8.234;2022-12-11T04:11:11;45.10;;;11.67;;
14903;SDS011;7543;53.148;8.234;2022-12-11T04:13:57;41.47;;;11.27;;
14903;SDS011;7543;53.148;8.234;2022-12-11T04:16:42;33.73;;;10.40;;
14903;SDS011;7543;53.148;8.234;2022-12-11T04:19:13;36.13;;;11.10;;
14903;SDS011;7543;53.148;8.234;2022-12-11T04:21:58;37.57;;;10.43;;
14903;SDS011;7543;53.148;8.234;2022-12-11T04:24:45;33.07;;;9.80;;
14903;SDS011;7543;53.148;8.234;2022-12-11T04:27:14;47.30;;;10.77;;
14903;SDS011;7543;53.148;8.234;2022-12-11T04:30:03;37.93;;;9.87;;
14903;SDS011;7543;53.148;8.234;2022-12-11T04:32:32;35.30;;;9.63;;
14903;SDS011;7543;53.148;8.234;2022-12-11T04:35:02;31.60;;;9.20;;
14903;SDS011;7543;53.148;8.234;2022-12-11T04:37:31;38.87;;;10.50;;
14903;SDS011;7543;53.148;8.234;2022-12-11T04:39:59;33.50;;;9.23;;
14903;SDS011;7543;53.148;8.234;2022-12-11T04:42:27;35.70;;;9.80;;
14903;SDS011;7543;53.148;8.234;2022-12-11T04:44:55;37.07;;;10.13;;
14903;SDS011;7543;53.148;8.234;2022-12-11T04:47:23;28.17;;;7.60;;
14903;SDS011;7543;53.148;8.234;2022-12-11T04:49:51;30.70;;;10.20;;
14903;SDS011;7543;53.148;8.234;2022-12-11T04:52:21;40.60;;;10.37;;
14903;SDS011;7543;53.148;8.234;2022-12-11T04:54:49;40.67;;;10.27;;
14903;SDS011;7543;53.148;8.234;2022-12-11T04:57:18;41.00;;;9.60;;
14903;SDS011;7543;53.148;8.234;2022-12-11T04:59:47;31.23;;;8.83;;
14903;SDS011;7543;53.148;8.234;2022-12-11T05:02:15;32.60;;;8.20;;
14903;SDS011;7543;53.148;8.234;2022-12-11T05:04:44;30.43;;;8.77;;
14903;SDS011;7543;53.148;8.234;2022-12-11T05:07:12;29.20;;;8.97;;
14903;SDS011;7543;53.148;8.234;2022-12-11T05:09:41;33.90;;;8.83;;
14903;SDS011;7543;53.148;8.234;2022-12-11T05:12:09;34.50;;;8.77;;
14903;SDS011;7543;53.148;8.234;2022-12-11T05:14:37;35.80;;;9.33;;
14903;SDS011;7543;53.148;8.234;2022-12-11T05:17:06;29.50;;;9.10;;
14903;SDS011;7543;53.148;8.234;2022-12-11T05:19:34;27.83;;;8.77;;
14903;SDS011;7543;53.148;8.234;2022-12-11T05:22:02;38.47;;;8.47;;
14903;SDS011;7543;53.148;8.234;2022-12-11T05:24:30;28.70;;;7.23;;
14903;SDS011;7543;53.148;8.234;2022-12-11T05:27:00;31.53;;;7.93;;
14903;SDS011;7543;53.148;8.234;2022-12-11T05:29:28;22.53;;;8.17;;
14903;SDS011;7543;53.148;8.234;2022-12-11T05:31:56;37.60;;;8.30;;
14903;SDS011;7543;53.148;8.234;2022-12-11T05:34:24;29.27;;;9.07;;
14903;SDS011;7543;53.148;8.234;2022-12-11T05:36:52;36.20;;;8.57;;
14903;SDS011;7543;53.148;8.234;2022-12-11T05:39:20;27.73;;;8.03;;
14903;SDS011;7543;53.148;8.234;2022-12-11T05:41:48;24.20;;;6.27;;
14903;SDS011;7543;53.148;8.234;2022-12-11T05:44:18;24.57;;;7.13;;
14903;SDS011;7543;53.148;8.234;2022-12-11T05:46:46;29.30;;;8.13;;
14903;SDS011;7543;53.148;8.234;2022-12-11T05:49:15;19.43;;;6.67;;
14903;SDS011;7543;53.148;8.234;2022-12-11T05:51:43;26.47;;;7.83;;
14903;SDS011;7543;53.148;8.234;2022-12-11T05:54:12;26.57;;;8.53;;
14903;SDS011;7543;53.148;8.234;2022-12-11T05:56:40;20.40;;;6.83;;
14903;SDS011;7543;53.148;8.234;2022-12-11T05:59:08;22.80;;;7.90;;
14903;SDS011;7543;53.148;8.234;2022-12-11T06:01:38;22.07;;;6.93;;
14903;SDS011;7543;53.148;8.234;2022-12-11T06:04:08;27.83;;;7.43;;
14903;SDS011;7543;53.148;8.234;2022-12-11T06:06:37;21.03;;;7.00;;
14903;SDS011;7543;53.148;8.234;2022-12-11T06:09:06;20.90;;;6.97;;
14903;SDS011;7543;53.148;8.234;2022-12-11T06:11:34;29.90;;;7.57;;
14903;SDS011;7543;53.148;8.234;2022-12-11T06:14:03;21.83;;;6.80;;
14903;SDS011;7543;53.148;8.234;2022-12-11T06:16:31;25.13;;;6.23;;
14903;SDS011;7543;53.148;8.234;2022-12-11T06:19:01;20.07;;;6.50;;
14903;SDS011;7543;53.148;8.234;2022-12-11T06:21:29;21.93;;;6.80;;
14903;SDS011;7543;53.148;8.234;2022-12-11T06:23:59;20.20;;;6.57;;
14903;SDS011;7543;53.148;8.234;2022-12-11T06:26:28;29.10;;;7.07;;
14903;SDS011;7543;53.148;8.234;2022-12-11T06:28:57;21.07;;;6.77;;
14903;SDS011;7543;53.148;8.234;2022-12-11T06:31:25;27.17;;;6.70;;
14903;SDS011;7543;53.148;8.234;2022-12-11T06:33:54;22.97;;;7.10;;
14903;SDS011;7543;53.148;8.234;2022-12-11T06:36:23;20.07;;;7.10;;
14903;SDS011;7543;53.148;8.234;2022-12-11T06:38:52;22.07;;;6.80;;
14903;SDS011;7543;53.148;8.234;2022-12-11T06:41:22;19.80;;;5.90;;
14903;SDS011;7543;53.148;8.234;2022-12-11T06:43:50;18.20;;;5.97;;
14903;SDS011;7543;53.148;8.234;2022-12-11T06:46:18;21.33;;;6.43;;
14903;SDS011;7543;53.148;8.234;2022-12-11T06:48:47;16.60;;;5.87;;
14903;SDS011;7543;53.148;8.234;2022-12-11T06:51:16;26.00;;;7.37;;
14903;SDS011;7543;53.148;8.234;2022-12-11T06:53:50;16.97;;;6.63;;
14903;SDS011;7543;53.148;8.234;2022-12-11T06:56:19;18.00;;;5.87;;
14903;SDS011;7543;53.148;8.234;2022-12-11T06:58:48;19.67;;;7.00;;
14903;SDS011;7543;53.148;8.234;2022-12-11T07:01:18;18.10;;;6.43;;
14903;SDS011;7543;53.148;8.234;2022-12-11T07:03:47;20.33;;;5.73;;
14903;SDS011;7543;53.148;8.234;2022-12-11T07:06:16;19.57;;;5.80;;
14903;SDS011;7543;53.148;8.234;2022-12-11T07:08:44;19.27;;;6.57;;
14903;SDS011;7543;53.148;8.234;2022-12-11T07:15:02;20.43;;;6.50;;
14903;SDS011;7543;53.148;8.234;2022-12-11T07:17:31;19.47;;;6.17;;
14903;SDS011;7543;53.148;8.234;2022-12-11T07:19:59;18.63;;;6.70;;
14903;SDS011;7543;53.148;8.234;2022-12-11T07:22:27;19.80;;;6.97;;
14903;SDS011;7543;53.148;8.234;2022-12-11T07:24:55;19.53;;;6.00;;
14903;SDS011;7543;53.148;8.234;2022-12-11T07:27:23;12.33;;;5.10;;
14903;SDS011;7543;53.148;8.234;2022-12-11T07:29:51;22.13;;;5.93;;
14903;SDS011;7543;53.148;8.234;2022-12-11T07:32:22;21.90;;;6.40;;
14903;SDS011;7543;53.148;8.234;2022-12-11T07:34:50;21.50;;;6.03;;
14903;SDS011;7543;53.148;8.234;2022-12-11T07:37:18;19.33;;;5.90;;
14903;SDS011;7543;53.148;8.234;2022-12-11T07:39:46;20.33;;;6.17;;
14903;SDS011;7543;53.148;8.234;2022-12-11T07:42:15;16.53;;;5.70;;
14903;SDS011;7543;53.148;8.234;2022-12-11T07:44:43;19.30;;;6.97;;
14903;SDS011;7543;53.148;8.234;2022-12-11T07:47:12;21.30;;;6.63;;
14903;SDS011;7543;53.148;8.234;2022-12-11T07:49:41;14.87;;;5.83;;
14903;SDS011;7543;53.148;8.234;2022-12-11T07:52:09;20.87;;;5.43;;
14903;SDS011;7543;53.148;8.234;2022-12-11T07:54:37;19.23;;;7.00;;
14903;SDS011;7543;53.148;8.234;2022-12-11T07:57:05;18.27;;;7.00;;
14903;SDS011;7543;53.148;8.234;2022-12-11T07:59:34;21.27;;;5.77;;
14903;SDS011;7543;53.148;8.234;2022-12-11T08:02:02;24.33;;;6.53;;
14903;SDS011;7543;53.148;8.234;2022-12-11T08:04:30;22.17;;;6.87;;
14903;SDS011;7543;53.148;8.234;2022-12-11T08:07:00;15.47;;;5.73;;
14903;SDS011;7543;53.148;8.234;2022-12-11T08:09:28;15.07;;;5.90;;
14903;SDS011;7543;53.148;8.234;2022-12-11T08:11:56;23.33;;;6.33;;
14903;SDS011;7543;53.148;8.234;2022-12-11T08:14:25;12.37;;;4.83;;
14903;SDS011;7543;53.148;8.234;2022-12-11T08:16:53;17.43;;;5.07;;
14903;SDS011;7543;53.148;8.234;2022-12-11T08:19:23;17.60;;;5.83;;
14903;SDS011;7543;53.148;8.234;2022-12-11T08:21:51;25.80;;;6.20;;
14903;SDS011;7543;53.148;8.234;2022-12-11T08:24:20;14.90;;;6.13;;
14903;SDS011;7543;53.148;8.234;2022-12-11T08:26:48;18.87;;;6.23;;
14903;SDS011;7543;53.148;8.234;2022-12-11T08:29:16;20.10;;;5.67;;
14903;SDS011;7543;53.148;8.234;2022-12-11T08:31:45;15.20;;;5.90;;
14903;SDS011;7543;53.148;8.234;2022-12-11T08:34:13;16.73;;;6.00;;
14903;SDS011;7543;53.148;8.234;2022-12-11T08:36:41;13.67;;;4.97;;
14903;SDS011;7543;53.148;8.234;2022-12-11T08:39:10;16.07;;;5.57;;
14903;SDS011;7543;53.148;8.234;2022-12-11T08:41:39;19.30;;;5.60;;
14903;SDS011;7543;53.148;8.234;2022-12-11T08:44:09;18.00;;;6.07;;
14903;SDS011;7543;53.148;8.234;2022-12-11T08:46:38;20.67;;;5.90;;
14903;SDS011;7543;53.148;8.234;2022-12-11T08:49:08;15.50;;;6.10;;
14903;SDS011;7543;53.148;8.234;2022-12-11T08:51:36;17.67;;;5.57;;
14903;SDS011;7543;53.148;8.234;2022-12-11T08:54:04;19.30;;;5.70;;
14903;SDS011;7543;53.148;8.234;2022-12-11T09:00:22;16.17;;;4.43;;
14903;SDS011;7543;53.148;8.234;2022-12-11T09:02:50;13.40;;;5.53;;
14903;SDS011;7543;53.148;8.234;2022-12-11T09:05:19;18.40;;;6.13;;
14903;SDS011;7543;53.148;8.234;2022-12-11T09:07:47;20.23;;;6.33;;
14903;SDS011;7543;53.148;8.234;2022-12-11T09:10:15;20.67;;;5.13;;
14903;SDS011;7543;53.148;8.234;2022-12-11T09:12:43;19.97;;;6.57;;
14903;SDS011;7543;53.148;8.234;2022-12-11T09:15:11;17.47;;;6.03;;
14903;SDS011;7543;53.148;8.234;2022-12-11T09:17:41;17.30;;;6.20;;
14903;SDS011;7543;53.148;8.234;2022-12-11T09:20:09;13.53;;;5.30;;
14903;SDS011;7543;53.148;8.234;2022-12-11T09:22:38;18.37;;;6.07;;
14903;SDS011;7543;53.148;8.234;2022-12-11T09:25:08;17.27;;;6.03;;
14903;SDS011;7543;53.148;8.234;2022-12-11T09:27:36;17.97;;;5.97;;
14903;SDS011;7543;53.148;8.234;2022-12-11T09:30:05;14.33;;;6.23;;
14903;SDS011;7543;53.148;8.234;2022-12-11T09:32:34;16.83;;;6.00;;
14903;SDS011;7543;53.148;8.234;2022-12-11T09:35:04;22.30;;;6.40;;
14903;SDS011;7543;53.148;8.234;2022-12-11T09:37:33;13.87;;;5.07;;
14903;SDS011;7543;53.148;8.234;2022-12-11T09:40:01;14.80;;;5.67;;
14903;SDS011;7543;53.148;8.234;2022-12-11T09:42:31;14.30;;;5.50;;
14903;SDS011;7543;53.148;8.234;2022-12-11T09:45:13;17.67;;;4.93;;
14903;SDS011;7543;53.148;8.234;2022-12-11T09:47:43;15.37;;;5.50;;
14903;SDS011;7543;53.148;8.234;2022-12-11T09:50:16;18.67;;;6.40;;
14903;SDS011;7543;53.148;8.234;2022-12-11T09:52:51;14.60;;;6.20;;
14903;SDS011;7543;53.148;8.234;2022-12-11T09:55:25;14.97;;;5.93;;
14903;SDS011;7543;53.148;8.234;2022-12-11T09:57:58;14.70;;;5.53;;
14903;SDS011;7543;53.148;8.234;2022-12-11T10:00:31;18.50;;;5.97;;
14903;SDS011;7543;53.148;8.234;2022-12-11T10:06:14;21.37;;;6.80;;
14903;SDS011;7543;53.148;8.234;2022-12-11T10:08:48;20.83;;;6.63;;
14903;SDS011;7543;53.148;8.234;2022-12-11T10:14:12;14.53;;;5.90;;
14903;SDS011;7543;53.148;8.234;2022-12-11T10:16:47;15.07;;;5.07;;
14903;SDS011;7543;53.148;8.234;2022-12-11T10:19:18;12.53;;;5.03;;
14903;SDS011;7543;53.148;8.234;2022-12-11T10:21:49;16.67;;;6.30;;
14903;SDS011;7543;53.148;8.234;2022-12-11T10:24:19;19.83;;;6.70;;
14903;SDS011;7543;53.148;8.234;2022-12-11T10:26:51;17.83;;;5.77;;
14903;SDS011;7543;53.148;8.234;2022-12-11T10:29:23;14.77;;;5.53;;
14903;SDS011;7543;53.148;8.234;2022-12-11T10:31:52;12.63;;;5.63;;
14903;SDS011;7543;53.148;8.234;2022-12-11T10:34:25;18.37;;;5.63;;
14903;SDS011;7543;53.148;8.234;2022-12-11T10:36:58;17.37;;;5.47;;
14903;SDS011;7543;53.148;8.234;2022-12-11T10:39:26;16.67;;;5.80;;
14903;SDS011;7543;53.148;8.234;2022-12-11T10:41:55;16.17;;;5.67;;
14903;SDS011;7543;53.148;8.234;2022-12-11T10:44:24;11.80;;;5.33;;
14903;SDS011;7543;53.148;8.234;2022-12-11T10:47:00;15.90;;;5.17;;
14903;SDS011;7543;53.148;8.234;2022-12-11T10:49:30;13.83;;;4.83;;
14903;SDS011;7543;53.148;8.234;2022-12-11T10:52:01;13.30;;;4.33;;
14903;SDS011;7543;53.148;8.234;2022-12-11T10:54:38;13.07;;;4.83;;
14903;SDS011;7543;53.148;8.234;2022-12-11T10:57:08;16.60;;;6.10;;
14903;SDS011;7543;53.148;8.234;2022-12-11T10:59:39;12.87;;;5.70;;
14903;SDS011;7543;53.148;8.234;2022-12-11T11:02:17;14.67;;;5.63;;
14903;SDS011;7543;53.148;8.234;2022-12-11T11:04:48;15.77;;;5.63;;
14903;SDS011;7543;53.148;8.234;2022-12-11T11:07:19;18.03;;;7.00;;
14903;SDS011;7543;53.148;8.234;2022-12-11T11:09:50;14.00;;;5.53;;
14903;SDS011;7543;53.148;8.234;2022-12-11T11:12:20;14.57;;;5.90;;
14903;SDS011;7543;53.148;8.234;2022-12-11T11:14:59;15.10;;;5.83;;
14903;SDS011;7543;53.148;8.234;2022-12-11T11:17:29;15.37;;;5.33;;
14903;SDS011;7543;53.148;8.234;2022-12-11T11:19:58;18.23;;;5.33;;
14903;SDS011;7543;53.148;8.234;2022-12-11T11:22:32;15.60;;;5.27;;
14903;SDS011;7543;53.148;8.234;2022-12-11T11:25:04;16.87;;;6.17;;
14903;SDS011;7543;53.148;8.234;2022-12-11T11:27:42;13.43;;;5.33;;
14903;SDS011;7543;53.148;8.234;2022-12-11T11:30:16;15.20;;;5.33;;
14903;SDS011;7543;53.148;8.234;2022-12-11T11:32:46;12.77;;;4.40;;
14903;SDS011;7543;53.148;8.234;2022-12-11T11:35:15;13.47;;;4.83;;
14903;SDS011;7543;53.148;8.234;2022-12-11T11:37:52;12.87;;;5.37;;
14903;SDS011;7543;53.148;8.234;2022-12-11T11:40:24;15.37;;;5.70;;
14903;SDS011;7543;53.148;8.234;2022-12-11T11:42:56;14.83;;;5.53;;
14903;SDS011;7543;53.148;8.234;2022-12-11T11:45:28;17.33;;;5.90;;
14903;SDS011;7543;53.148;8.234;2022-12-11T11:48:02;14.60;;;5.00;;
14903;SDS011;7543;53.148;8.234;2022-12-11T11:50:43;19.50;;;5.73;;
14903;SDS011;7543;53.148;8.234;2022-12-11T11:53:15;18.53;;;5.93;;
14903;SDS011;7543;53.148;8.234;2022-12-11T11:55:48;12.57;;;5.20;;
14903;SDS011;7543;53.148;8.234;2022-12-11T12:02:12;17.30;;;5.47;;
14903;SDS011;7543;53.148;8.234;2022-12-11T12:08:37;9.47;;;4.17;;
14903;SDS011;7543;53.148;8.234;2022-12-11T12:11:10;14.70;;;6.20;;
14903;SDS011;7543;53.148;8.234;2022-12-11T12:13:44;15.20;;;5.70;;
14903;SDS011;7543;53.148;8.234;2022-12-11T12:16:19;11.23;;;4.80;;
14903;SDS011;7543;53.148;8.234;2022-12-11T12:18:51;11.63;;;5.80;;
14903;SDS011;7543;53.148;8.234;2022-12-11T12:21:26;13.30;;;5.67;;
14903;SDS011;7543;53.148;8.234;2022-12-11T12:24:04;14.37;;;5.83;;
14903;SDS011;7543;53.148;8.234;2022-12-11T12:26:36;19.23;;;5.70;;
14903;SDS011;7543;53.148;8.234;2022-12-11T12:29:10;17.00;;;6.67;;
14903;SDS011;7543;53.148;8.234;2022-12-11T12:31:49;13.47;;;5.47;;
14903;SDS011;7543;53.148;8.234;2022-12-11T12:34:26;15.23;;;5.93;;
14903;SDS011;7543;53.148;8.234;2022-12-11T12:37:03;11.77;;;5.63;;
14903;SDS011;7543;53.148;8.234;2022-12-11T12:39:38;16.73;;;5.37;;
14903;SDS011;7543;53.148;8.234;2022-12-11T12:42:10;13.50;;;5.40;;
14903;SDS011;7543;53.148;8.234;2022-12-11T12:44:45;14.20;;;6.13;;
14903;SDS011;7543;53.148;8.234;2022-12-11T12:47:19;11.83;;;5.50;;
14903;SDS011;7543;53.148;8.234;2022-12-11T12:49:49;18.23;;;6.53;;
14903;SDS011;7543;53.148;8.234;2022-12-11T12:52:18;13.47;;;6.47;;
14903;SDS011;7543;53.148;8.234;2022-12-11T12:54:51;18.50;;;6.70;;
14903;SDS011;7543;53.148;8.234;2022-12-11T12:57:45;19.73;;;7.37;;
14903;SDS011;7543;53.148;8.234;2022-12-11T13:00:25;16.83;;;7.20;;
14903;SDS011;7543;53.148;8.234;2022-12-11T13:02:54;18.33;;;6.90;;
14903;SDS011;7543;53.148;8.234;2022-12-11T13:05:24;17.43;;;7.33;;
14903;SDS011;7543;53.148;8.234;2022-12-11T13:07:54;18.33;;;6.70;;
14903;SDS011;7543;53.148;8.234;2022-12-11T13:10:26;15.47;;;6.57;;
14903;SDS011;7543;53.148;8.234;2022-12-11T13:12:56;13.80;;;6.23;;
14903;SDS011;7543;53.148;8.234;2022-12-11T13:15:26;19.20;;;7.17;;
14903;SDS011;7543;53.148;8.234;2022-12-11T13:18:00;15.93;;;6.50;;
14903;SDS011;7543;53.148;8.234;2022-12-11T13:20:29;16.57;;;6.17;;
14903;SDS011;7543;53.148;8.234;2022-12-11T13:25:56;17.53;;;7.03;;
14903;SDS011;7543;53.148;8.234;2022-12-11T13:28:27;14.37;;;6.20;;
14903;SDS011;7543;53.148;8.234;2022-12-11T13:31:22;11.87;;;6.00;;
14903;SDS011;7543;53.148;8.234;2022-12-11T13:33:56;16.63;;;5.93;;
14903;SDS011;7543;53.148;8.234;2022-12-11T13:36:29;13.70;;;5.83;;
14903;SDS011;7543;53.148;8.234;2022-12-11T13:39:00;15.93;;;5.13;;
14903;SDS011;7543;53.148;8.234;2022-12-11T13:41:32;16.40;;;5.73;;
14903;SDS011;7543;53.148;8.234;2022-12-11T13:44:02;14.67;;;5.10;;
14903;SDS011;7543;53.148;8.234;2022-12-11T13:46:33;12.60;;;6.20;;
14903;SDS011;7543;53.148;8.234;2022-12-11T13:49:03;12.53;;;4.90;;
14903;SDS011;7543;53.148;8.234;2022-12-11T13:51:33;16.70;;;5.40;;
14903;SDS011;7543;53.148;8.234;2022-12-11T13:54:11;7.60;;;4.40;;
14903;SDS011;7543;53.148;8.234;2022-12-11T13:56:52;16.83;;;5.60;;
14903;SDS011;7543;53.148;8.234;2022-12-11T13:59:29;14.30;;;5.23;;
14903;SDS011;7543;53.148;8.234;2022-12-11T14:02:00;10.40;;;4.93;;
14903;SDS011;7543;53.148;8.234;2022-12-11T14:04:32;15.27;;;5.03;;
14903;SDS011;7543;53.148;8.234;2022-12-11T14:07:01;11.33;;;4.57;;
14903;SDS011;7543;53.148;8.234;2022-12-11T14:09:33;12.37;;;4.67;;
14903;SDS011;7543;53.148;8.234;2022-12-11T14:12:06;13.47;;;4.30;;
14903;SDS011;7543;53.148;8.234;2022-12-11T14:14:39;17.30;;;3.90;;
14903;SDS011;7543;53.148;8.234;2022-12-11T14:17:10;11.97;;;4.47;;
14903;SDS011;7543;53.148;8.234;2022-12-11T14:19:40;9.93;;;4.70;;
14903;SDS011;7543;53.148;8.234;2022-12-11T14:22:16;11.07;;;5.30;;
14903;SDS011;7543;53.148;8.234;2022-12-11T14:24:49;10.50;;;4.97;;
14903;SDS011;7543;53.148;8.234;2022-12-11T14:27:20;13.27;;;5.57;;
14903;SDS011;7543;53.148;8.234;2022-12-11T14:29:48;12.63;;;5.23;;
14903;SDS011;7543;53.148;8.234;2022-12-11T14:32:17;15.43;;;5.50;;
14903;SDS011;7543;53.148;8.234;2022-12-11T14:34:47;17.17;;;5.43;;
14903;SDS011;7543;53.148;8.234;2022-12-11T14:37:17;12.67;;;6.03;;
14903;SDS011;7543;53.148;8.234;2022-12-11T14:39:48;16.53;;;6.33;;
14903;SDS011;7543;53.148;8.234;2022-12-11T14:42:21;14.60;;;6.50;;
14903;SDS011;7543;53.148;8.234;2022-12-11T14:44:52;16.47;;;6.17;;
14903;SDS011;7543;53.148;8.234;2022-12-11T14:47:22;14.20;;;5.00;;
14903;SDS011;7543;53.148;8.234;2022-12-11T14:49:54;17.37;;;6.27;;
14903;SDS011;7543;53.148;8.234;2022-12-11T14:52:26;10.63;;;6.00;;
14903;SDS011;7543;53.148;8.234;2022-12-11T14:54:59;16.90;;;7.00;;
14903;SDS011;7543;53.148;8.234;2022-12-11T14:57:30;13.87;;;6.67;;
14903;SDS011;7543;53.148;8.234;2022-12-11T15:00:00;13.13;;;5.93;;
14903;SDS011;7543;53.148;8.234;2022-12-11T15:02:28;16.80;;;6.50;;
14903;SDS011;7543;53.148;8.234;2022-12-11T15:05:04;18.53;;;7.07;;
14903;SDS011;7543;53.148;8.234;2022-12-11T15:07:40;13.20;;;5.60;;
14903;SDS011;7543;53.148;8.234;2022-12-11T15:10:22;11.23;;;5.80;;
14903;SDS011;7543;53.148;8.234;2022-12-11T15:12:53;14.87;;;5.93;;
14903;SDS011;7543;53.148;8.234;2022-12-11T15:15:21;12.87;;;6.70;;
14903;SDS011;7543;53.148;8.234;2022-12-11T15:17:50;17.00;;;6.30;;
14903;SDS011;7543;53.148;8.234;2022-12-11T15:20:20;14.23;;;6.07;;
14903;SDS011;7543;53.148;8.234;2022-12-11T15:22:53;14.63;;;5.67;;
14903;SDS011;7543;53.148;8.234;2022-12-11T15:25:25;13.67;;;6.90;;
14903;SDS011;7543;53.148;8.234;2022-12-11T15:27:56;15.10;;;5.57;;
14903;SDS011;7543;53.148;8.234;2022-12-11T15:30:30;14.80;;;6.07;;